createdAt,value
2018-11-22T00:01:07.910Z,66.58
2018-11-22T00:03:43.418Z,66.42
2018-11-22T00:06:18.482Z,66.46
2018-11-22T00:08:53.383Z,66.50
2018-11-22T00:11:28.437Z,66.50
2018-11-22T00:14:03.486Z,66.61
2018-11-22T00:16:38.725Z,66.52
2018-11-22T00:19:13.714Z,66.47
2018-11-22T00:21:48.407Z,66.45
2018-11-22T00:24:23.284Z,66.41
2018-11-22T00:26:58.318Z,66.56
2018-11-22T00:29:33.283Z,66.57
2018-11-22T00:32:08.297Z,66.37
2018-11-22T00:34:42.891Z,66.22
2018-11-22T00:37:17.331Z,66.16
2018-11-22T00:39:52.082Z,66.24
2018-11-22T00:42:26.916Z,66.26
2018-11-22T00:44:59.867Z,66.32
2018-11-22T00:47:37.529Z,66.42
2018-11-22T00:50:12.286Z,66.61
2018-11-22T00:52:53.081Z,66.59
2018-11-22T00:55:29.103Z,66.56
2018-11-22T00:58:04.052Z,66.37
2018-11-22T01:00:39.515Z,66.35
2018-11-22T01:03:14.278Z,66.29
2018-11-22T01:05:49.284Z,66.29
2018-11-22T01:08:24.285Z,66.26
2018-11-22T01:10:59.142Z,66.39
2018-11-22T01:13:33.791Z,66.48
2018-11-22T01:16:08.779Z,66.60
2018-11-22T01:18:43.458Z,66.66
2018-11-22T01:21:16.276Z,66.67
2018-11-22T01:23:50.912Z,66.73
2018-11-22T01:26:25.426Z,66.88
2018-11-22T01:28:59.954Z,66.87
2018-11-22T01:31:34.486Z,66.85
2018-11-22T01:34:09.374Z,67.00
2018-11-22T01:36:43.949Z,67.00
2018-11-22T01:39:18.736Z,67.00
2018-11-22T01:41:53.295Z,66.72
2018-11-22T01:44:28.387Z,66.72
2018-11-22T01:49:29.452Z,66.58
2018-11-22T01:52:04.022Z,66.60
2018-11-22T01:54:38.593Z,66.59
2018-11-22T01:57:13.285Z,66.50
2018-11-22T01:59:48.281Z,66.60
2018-11-22T02:02:21.286Z,66.55
2018-11-22T02:04:55.957Z,66.51
2018-11-22T02:07:30.905Z,66.27
2018-11-22T02:10:05.402Z,66.27
2018-11-22T02:12:56.971Z,66.39
2018-11-22T02:15:32.292Z,66.62
2018-11-22T02:18:06.894Z,66.58
2018-11-22T02:20:42.140Z,66.43
2018-11-22T02:23:17.086Z,66.53
2018-11-22T02:25:52.272Z,66.61
2018-11-22T02:28:26.796Z,66.73
2018-11-22T02:31:01.290Z,66.53
2018-11-22T02:33:35.948Z,66.53
2018-11-22T02:36:10.388Z,66.61
2018-11-22T02:38:44.952Z,66.67
2018-11-22T02:41:19.445Z,66.65
2018-11-22T02:43:54.286Z,66.46
2018-11-22T02:46:27.128Z,66.54
2018-11-22T02:49:01.951Z,66.46
2018-11-22T02:51:36.964Z,66.52
2018-11-22T02:54:11.922Z,66.51
2018-11-22T02:56:46.456Z,66.51
2018-11-22T02:59:20.953Z,66.60
2018-11-22T03:01:55.560Z,66.60
2018-11-22T03:04:30.083Z,66.34
2018-11-22T03:07:05.171Z,66.16
2018-11-22T03:09:39.710Z,66.09
2018-11-22T03:12:15.281Z,66.09
2018-11-22T03:14:50.113Z,66.09
2018-11-22T03:17:24.799Z,66.18
2018-11-22T03:19:59.754Z,66.23
2018-11-22T03:22:34.297Z,66.33
2018-11-22T03:25:10.382Z,66.33
2018-11-22T03:27:51.460Z,66.23
2018-11-22T03:30:26.748Z,66.17
2018-11-22T03:33:02.415Z,66.31
2018-11-22T03:35:37.448Z,66.41
2018-11-22T03:38:12.148Z,66.32
2018-11-22T03:40:46.961Z,66.33
2018-11-22T03:43:25.301Z,66.18
2018-11-22T03:45:59.972Z,66.34
2018-11-22T03:48:34.691Z,66.37
2018-11-22T03:51:10.123Z,66.25
2018-11-22T03:53:44.497Z,66.24
2018-11-22T03:56:17.305Z,66.22
2018-11-22T03:58:52.338Z,66.26
2018-11-22T04:01:26.962Z,66.26
2018-11-22T04:04:01.567Z,66.40
2018-11-22T04:06:36.330Z,66.06
2018-11-22T04:09:15.444Z,66.25
2018-11-22T04:11:48.293Z,66.25
2018-11-22T04:14:22.922Z,66.36
2018-11-22T04:16:57.802Z,66.39
2018-11-22T04:19:30.343Z,66.39
2018-11-22T04:22:03.076Z,66.39
2018-11-22T04:24:37.509Z,66.40
2018-11-22T04:27:12.340Z,66.40
2018-11-22T04:29:46.961Z,66.55
2018-11-22T04:32:21.450Z,66.46
2018-11-22T04:34:56.322Z,66.48
2018-11-22T04:37:30.965Z,66.48
2018-11-22T04:40:05.710Z,66.52
2018-11-22T04:42:40.586Z,66.58
2018-11-22T04:45:15.412Z,66.58
2018-11-22T04:48:08.486Z,66.70
2018-11-22T04:50:43.317Z,66.94
2018-11-22T04:53:17.955Z,66.79
2018-11-22T04:55:52.514Z,66.79
2018-11-22T04:58:25.288Z,66.61
2018-11-22T05:00:58.292Z,66.76
2018-11-22T05:03:33.283Z,66.64
2018-11-22T05:06:08.297Z,66.63
2018-11-22T05:08:43.352Z,66.53
2018-11-22T05:11:18.088Z,66.65
2018-11-22T05:13:52.541Z,66.37
2018-11-22T05:16:28.399Z,66.15
2018-11-22T05:19:03.307Z,66.04
2018-11-22T05:21:36.115Z,66.04
2018-11-22T05:24:11.114Z,66.20
2018-11-22T05:26:45.488Z,66.40
2018-11-22T05:29:20.331Z,66.44
2018-11-22T05:31:55.298Z,66.44
2018-11-22T05:34:29.966Z,66.33
2018-11-22T05:37:04.963Z,66.26
2018-11-22T05:39:39.377Z,66.49
2018-11-22T05:42:12.092Z,66.44
2018-11-22T05:44:46.644Z,66.39
2018-11-22T05:47:21.292Z,66.41
2018-11-22T05:49:55.790Z,66.34
2018-11-22T05:52:30.532Z,66.57
2018-11-22T05:55:04.989Z,66.69
2018-11-22T05:57:40.299Z,66.74
2018-11-22T06:00:26.288Z,66.79
2018-11-22T06:03:06.565Z,66.79
2018-11-22T06:05:41.393Z,66.91
2018-11-22T06:08:14.126Z,66.91
2018-11-22T06:10:49.338Z,67.01
2018-11-22T06:13:22.295Z,67.21
2018-11-22T06:15:56.668Z,67.10
2018-11-22T06:18:31.495Z,67.03
2018-11-22T06:21:04.452Z,67.12
2018-11-22T06:23:39.299Z,67.03
2018-11-22T06:26:12.308Z,67.03
2018-11-22T06:28:47.297Z,66.98
2018-11-22T06:31:22.292Z,66.96
2018-11-22T06:33:58.295Z,66.86
2018-11-22T06:36:33.335Z,67.06
2018-11-22T06:39:06.382Z,67.09
2018-11-22T06:41:41.490Z,67.09
2018-11-22T06:44:14.307Z,67.32
2018-11-22T06:46:47.310Z,67.38
2018-11-22T06:49:22.322Z,67.42
2018-11-22T06:51:58.336Z,67.48
2018-11-22T06:54:33.311Z,67.61
2018-11-22T06:57:08.301Z,67.73
2018-11-22T06:59:41.290Z,67.96
2018-11-22T07:02:14.294Z,68.05
2018-11-22T07:04:47.297Z,68.04
2018-11-22T07:07:20.304Z,68.12
2018-11-22T07:09:53.501Z,68.20
2018-11-22T07:12:28.433Z,68.34
2018-11-22T07:15:01.303Z,68.65
2018-11-22T07:17:34.399Z,68.65
2018-11-22T07:20:14.462Z,68.50
2018-11-22T07:22:50.298Z,68.52
2018-11-22T07:25:24.437Z,68.53
2018-11-22T07:28:00.161Z,68.63
2018-11-22T07:30:42.455Z,68.63
2018-11-22T07:33:11.917Z,68.67
2018-11-22T07:35:46.955Z,68.82
2018-11-22T07:38:22.290Z,68.75
2018-11-22T07:40:55.306Z,68.76
2018-11-22T07:43:28.451Z,68.74
2018-11-22T07:46:03.301Z,68.74
2018-11-22T07:48:36.511Z,68.74
2018-11-22T07:51:11.757Z,68.95
2018-11-22T07:53:46.964Z,68.95
2018-11-22T07:56:24.458Z,69.01
2018-11-22T07:58:59.314Z,69.00
2018-11-22T08:01:34.462Z,69.00
2018-11-22T08:04:07.300Z,69.00
2018-11-22T08:06:40.284Z,68.97
2018-11-22T08:09:13.299Z,69.01
2018-11-22T08:11:46.293Z,69.15
2018-11-22T08:14:19.290Z,69.08
2018-11-22T08:16:52.300Z,69.09
2018-11-22T08:19:56.336Z,68.82
2018-11-22T08:22:31.300Z,68.82
2018-11-22T08:25:06.394Z,68.55
2018-11-22T08:27:41.763Z,68.67
2018-11-22T08:30:17.909Z,68.62
2018-11-22T08:32:54.820Z,68.38
2018-11-22T08:35:29.638Z,68.51
2018-11-22T08:38:06.327Z,68.61
2018-11-22T08:40:41.447Z,68.32
2018-11-22T08:43:22.378Z,68.00
2018-11-22T08:45:57.418Z,67.99
2018-11-22T08:48:32.308Z,68.03
2018-11-22T08:51:07.307Z,67.92
2018-11-22T08:53:40.297Z,67.46
2018-11-22T08:56:13.293Z,67.26
2018-11-22T08:58:46.381Z,67.15
2018-11-22T09:01:21.309Z,67.15
2018-11-22T09:03:56.295Z,66.83
2018-11-22T09:06:29.296Z,66.73
2018-11-22T09:09:04.417Z,66.53
2018-11-22T09:11:39.298Z,66.23
2018-11-22T09:14:12.364Z,65.89
2018-11-22T09:16:45.291Z,65.86
2018-11-22T09:19:19.291Z,65.79
2018-11-22T09:21:52.441Z,65.57
2018-11-22T09:24:27.501Z,65.38
2018-11-22T09:27:02.293Z,65.08
2018-11-22T09:29:39.564Z,65.08
2018-11-22T09:32:12.590Z,65.41
2018-11-22T09:34:47.415Z,65.09
2018-11-22T09:37:22.296Z,65.12
2018-11-22T09:39:55.292Z,65.12
2018-11-22T09:42:28.294Z,64.99
2018-11-22T09:45:03.406Z,64.75
2018-11-22T09:47:38.376Z,64.06
2018-11-22T09:50:14.386Z,64.06
2018-11-22T09:52:48.302Z,64.14
2018-11-22T09:55:23.335Z,64.12
2018-11-22T09:57:58.737Z,63.89
2018-11-22T10:00:33.412Z,63.78
2018-11-22T10:03:09.479Z,63.78
2018-11-22T10:05:44.611Z,63.78
2018-11-22T10:08:26.800Z,63.47
2018-11-22T10:11:01.797Z,63.47
2018-11-22T10:13:36.743Z,63.80
2018-11-22T10:16:11.577Z,63.76
2018-11-22T10:18:48.561Z,64.28
2018-11-22T10:21:23.370Z,64.56
2018-11-22T10:23:58.367Z,64.56
2018-11-22T10:26:33.401Z,64.61
2018-11-22T10:29:08.408Z,64.90
2018-11-22T10:31:43.808Z,64.90
2018-11-22T10:34:18.944Z,65.23
2018-11-22T10:36:56.262Z,65.23
2018-11-22T10:39:31.346Z,65.07
2018-11-22T10:42:06.318Z,65.19
2018-11-22T10:44:41.145Z,65.32
2018-11-22T10:47:16.300Z,65.32
2018-11-22T10:49:51.520Z,65.28
2018-11-22T10:52:26.306Z,65.50
2018-11-22T10:55:01.293Z,65.38
2018-11-22T10:57:34.289Z,65.47
2018-11-22T11:00:10.298Z,65.84
2018-11-22T11:03:00.594Z,65.84
2018-11-22T11:05:53.299Z,65.70
2018-11-22T11:08:30.320Z,65.73
2018-11-22T11:11:05.455Z,65.73
2018-11-22T11:13:40.302Z,65.66
2018-11-22T11:16:13.278Z,65.80
2018-11-22T11:18:48.383Z,65.59
2018-11-22T11:21:21.678Z,65.37
2018-11-22T11:23:56.294Z,65.15
2018-11-22T11:26:31.291Z,64.58
2018-11-22T11:29:12.581Z,64.87
2018-11-22T11:31:42.963Z,64.94
2018-11-22T11:34:18.301Z,64.60
2018-11-22T11:36:51.464Z,64.59
2018-11-22T11:39:26.419Z,64.65
2018-11-22T11:42:01.309Z,64.65
2018-11-22T11:44:36.295Z,64.65
2018-11-22T11:47:09.470Z,64.65
2018-11-22T11:49:44.298Z,64.68
2018-11-22T11:52:19.311Z,64.67
2018-11-22T11:54:52.290Z,64.57
2018-11-22T11:57:25.287Z,64.47
2018-11-22T12:00:00.306Z,64.27
2018-11-22T12:02:33.285Z,64.12
2018-11-22T12:05:06.298Z,64.14
2018-11-22T12:07:41.894Z,63.73
2018-11-22T12:10:21.955Z,63.88
2018-11-22T12:12:57.285Z,63.71
2018-11-22T12:15:30.303Z,63.77
2018-11-22T12:18:03.341Z,63.74
2018-11-22T12:20:36.457Z,63.75
2018-11-22T12:23:11.713Z,64.25
2018-11-22T12:25:46.797Z,64.25
2018-11-22T12:28:23.653Z,64.34
2018-11-22T12:31:06.111Z,64.38
2018-11-22T12:33:42.524Z,64.16
2018-11-22T12:36:26.584Z,64.16
2018-11-22T12:39:01.291Z,64.16
2018-11-22T12:41:36.425Z,64.31
2018-11-22T12:44:11.736Z,64.35
2018-11-22T12:46:46.959Z,64.29
2018-11-22T12:49:24.377Z,64.38
2018-11-22T12:51:59.442Z,64.29
2018-11-22T12:54:34.715Z,64.40
2018-11-22T12:57:10.741Z,64.40
2018-11-22T12:59:45.949Z,64.42
2018-11-22T13:02:23.425Z,64.56
2018-11-22T13:04:56.307Z,64.80
2018-11-22T13:07:31.286Z,64.98
2018-11-22T13:10:04.286Z,65.09
2018-11-22T13:12:37.146Z,65.16
2018-11-22T13:15:15.330Z,65.10
2018-11-22T13:17:50.284Z,65.10
2018-11-22T13:20:25.450Z,64.98
2018-11-22T13:23:00.481Z,65.05
2018-11-22T13:25:33.283Z,65.25
2018-11-22T13:28:06.313Z,65.38
2018-11-22T13:30:39.419Z,65.36
2018-11-22T13:33:15.491Z,65.30
2018-11-22T13:35:50.415Z,65.30
2018-11-22T13:38:25.384Z,65.17
2018-11-22T13:41:00.285Z,65.00
2018-11-22T13:43:34.309Z,65.00
2018-11-22T13:46:07.124Z,65.14
2018-11-22T13:51:08.449Z,65.23
2018-11-22T13:53:41.374Z,65.16
2018-11-22T13:56:15.958Z,65.74
2018-11-22T13:58:51.281Z,65.77
2018-11-22T14:01:24.348Z,65.77
2018-11-22T14:03:57.289Z,65.66
2018-11-22T14:06:30.278Z,65.70
2018-11-22T14:09:05.455Z,65.95
2018-11-22T14:11:40.602Z,65.95
2018-11-22T14:14:15.438Z,66.26
2018-11-22T14:16:50.741Z,66.61
2018-11-22T14:19:25.281Z,66.85
2018-11-22T14:21:58.284Z,66.85
2018-11-22T14:24:33.343Z,66.92
2018-11-22T14:27:08.398Z,66.84
2018-11-22T14:29:43.330Z,66.83
2018-11-22T14:32:16.291Z,66.96
2018-11-22T14:34:51.282Z,67.02
2018-11-22T14:37:24.286Z,67.08
2018-11-22T14:39:59.399Z,67.10
2018-11-22T14:42:34.386Z,66.93
2018-11-22T14:45:07.293Z,66.86
2018-11-22T14:47:40.284Z,66.82
2018-11-22T14:50:26.957Z,66.88
2018-11-22T14:53:23.365Z,66.85
2018-11-22T14:55:58.473Z,66.75
2018-11-22T14:58:35.956Z,66.80
2018-11-22T15:01:11.430Z,66.80
2018-11-22T15:03:46.311Z,66.57
2018-11-22T15:06:19.287Z,66.57
2018-11-22T15:08:54.425Z,66.70
2018-11-22T15:11:29.428Z,66.66
2018-11-22T15:14:04.285Z,66.83
2018-11-22T15:16:37.288Z,66.75
2018-11-22T15:19:12.436Z,66.46
2018-11-22T15:21:47.289Z,66.46
2018-11-22T15:24:22.294Z,66.57
2018-11-22T15:26:57.282Z,66.46
2018-11-22T15:29:32.284Z,66.45
2018-11-22T15:32:05.296Z,66.50
2018-11-22T15:34:40.331Z,66.48
2018-11-22T15:37:15.329Z,66.63
2018-11-22T15:39:50.305Z,66.70
2018-11-22T15:42:23.293Z,66.52
2018-11-22T15:44:58.327Z,66.73
2018-11-22T15:47:31.282Z,66.73
2018-11-22T15:50:04.333Z,66.96
2018-11-22T15:52:39.333Z,66.94
2018-11-22T15:55:20.843Z,67.00
2018-11-22T15:57:52.278Z,67.26
2018-11-22T16:00:31.022Z,67.22
2018-11-22T16:03:06.973Z,67.29
2018-11-22T16:05:42.354Z,67.38
2018-11-22T16:08:17.306Z,67.30
2018-11-22T16:10:50.307Z,67.54
2018-11-22T16:13:25.979Z,67.77
2018-11-22T16:16:00.963Z,67.89
2018-11-22T16:18:44.410Z,67.77
2018-11-22T16:21:19.402Z,67.73
2018-11-22T16:23:52.279Z,67.78
2018-11-22T16:26:25.102Z,68.10
2018-11-22T16:29:00.410Z,67.98
2018-11-22T16:31:34.956Z,68.14
2018-11-22T16:34:09.956Z,68.12
2018-11-22T16:36:45.187Z,67.92
2018-11-22T16:39:19.703Z,67.55
2018-11-22T16:41:54.338Z,67.55
2018-11-22T16:44:29.284Z,67.59
2018-11-22T16:47:02.164Z,67.28
2018-11-22T16:49:37.013Z,67.32
2018-11-22T16:52:11.958Z,67.34
2018-11-22T16:54:46.949Z,67.31
2018-11-22T16:57:23.288Z,67.30
2018-11-22T16:59:57.949Z,67.39
2018-11-22T17:02:32.830Z,67.53
2018-11-22T17:05:07.924Z,67.57
2018-11-22T17:07:42.466Z,67.87
2018-11-22T17:10:19.655Z,67.86
2018-11-22T17:12:55.595Z,68.00
2018-11-22T17:15:34.974Z,68.00
2018-11-22T17:18:10.893Z,68.08
2018-11-22T17:20:45.350Z,68.09
2018-11-22T17:23:19.905Z,67.81
2018-11-22T17:25:52.674Z,67.85
2018-11-22T17:28:51.283Z,67.63
2018-11-22T17:31:25.950Z,67.63
2018-11-22T17:34:00.376Z,67.57
2018-11-22T17:36:34.962Z,67.34
2018-11-22T17:39:15.304Z,67.27
2018-11-22T17:41:48.100Z,67.25
2018-11-22T17:44:22.965Z,67.79
2018-11-22T17:46:58.040Z,67.79
2018-11-22T17:49:33.078Z,67.27
2018-11-22T17:52:08.349Z,67.27
2018-11-22T17:54:43.388Z,67.39
2018-11-22T17:57:18.286Z,67.51
2018-11-22T17:59:53.002Z,67.45
2018-11-22T18:02:27.432Z,67.45
2018-11-22T18:05:02.298Z,67.51
2018-11-22T18:07:36.931Z,67.51
2018-11-22T18:10:11.112Z,67.40
2018-11-22T18:12:46.773Z,67.27
2018-11-22T18:15:20.622Z,67.10
2018-11-22T18:17:55.584Z,67.05
2018-11-22T18:20:31.957Z,67.19
2018-11-22T18:23:11.235Z,67.25
2018-11-22T18:25:41.799Z,67.16
2018-11-22T18:28:16.336Z,67.18
2018-11-22T18:30:50.957Z,67.18
2018-11-22T18:33:25.572Z,66.98
2018-11-22T18:35:58.292Z,66.85
2018-11-22T18:38:51.237Z,67.00
2018-11-22T18:41:25.955Z,66.98
2018-11-22T18:44:00.434Z,66.79
2018-11-22T18:46:35.290Z,66.64
2018-11-22T18:49:10.302Z,66.64
2018-11-22T18:51:45.193Z,66.74
2018-11-22T18:54:20.130Z,66.66
2018-11-22T18:56:54.939Z,66.48
2018-11-22T18:59:27.713Z,66.42
2018-11-22T19:02:00.359Z,66.33
2018-11-22T19:04:35.285Z,66.33
2018-11-22T19:07:10.018Z,66.26
2018-11-22T19:09:44.784Z,66.08
2018-11-22T19:12:19.323Z,65.96
2018-11-22T19:14:54.167Z,65.96
2018-11-22T19:17:30.892Z,65.86
2018-11-22T19:20:09.175Z,65.86
2018-11-22T19:22:42.115Z,66.04
2018-11-22T19:25:16.767Z,65.97
2018-11-22T19:27:51.337Z,66.47
2018-11-22T19:30:37.429Z,66.45
2018-11-22T19:33:11.296Z,66.45
2018-11-22T19:35:47.524Z,66.63
2018-11-22T19:38:20.311Z,66.84
2018-11-22T19:42:01.338Z,66.95
2018-11-22T19:44:36.291Z,66.80
2018-11-22T19:47:11.341Z,66.86
2018-11-22T19:49:46.285Z,66.86
2018-11-22T19:52:21.346Z,66.71
2018-11-22T19:54:56.307Z,66.59
2018-11-22T19:57:31.110Z,66.59
2018-11-22T20:00:06.461Z,67.35
2018-11-22T20:02:40.006Z,67.37
2018-11-22T20:05:16.422Z,67.37
2018-11-22T20:07:50.717Z,67.29
2018-11-22T20:10:25.299Z,67.10
2018-11-22T20:12:58.281Z,67.04
2018-11-22T20:15:33.347Z,67.33
2018-11-22T20:18:09.300Z,67.73
2018-11-22T20:20:49.493Z,67.97
2018-11-22T20:23:21.871Z,67.83
2018-11-22T20:25:55.140Z,67.68
2018-11-22T20:28:30.307Z,67.75
2018-11-22T20:31:04.959Z,67.76
2018-11-22T20:34:00.006Z,67.87
2018-11-22T20:36:36.140Z,67.76
2018-11-22T20:39:15.566Z,67.80
2018-11-22T20:41:48.315Z,67.70
2018-11-22T20:44:23.007Z,67.48
2018-11-22T20:46:57.690Z,67.36
2018-11-22T20:49:32.430Z,67.31
2018-11-22T20:52:05.292Z,67.26
2018-11-22T20:54:39.954Z,67.18
2018-11-22T20:57:14.504Z,67.19
2018-11-22T20:59:49.302Z,67.25
2018-11-22T21:02:23.966Z,67.25
2018-11-22T21:04:58.962Z,67.31
2018-11-22T21:07:33.584Z,67.32
2018-11-22T21:10:09.340Z,67.43
2018-11-22T21:12:42.294Z,67.43
2018-11-22T21:15:27.960Z,67.28
2018-11-22T21:18:04.374Z,66.90
2018-11-22T21:20:40.776Z,66.90
2018-11-22T21:23:15.491Z,66.89
2018-11-22T21:25:50.303Z,66.93
2018-11-22T21:28:24.956Z,66.60
2018-11-22T21:30:59.967Z,66.61
2018-11-22T21:33:38.488Z,66.43
2018-11-22T21:36:12.969Z,66.23
2018-11-22T21:38:48.982Z,66.52
2018-11-22T21:41:23.573Z,66.40
2018-11-22T21:44:01.884Z,66.53
2018-11-22T21:46:36.445Z,66.29
2018-11-22T21:51:56.414Z,66.18
2018-11-22T21:54:31.300Z,66.22
2018-11-22T21:57:05.970Z,66.22
2018-11-22T21:59:40.968Z,66.41
2018-11-22T22:02:15.599Z,66.41
2018-11-22T22:04:48.285Z,66.31
2018-11-22T22:07:21.296Z,66.34
2018-11-22T22:09:56.622Z,66.34
2018-11-22T22:12:31.425Z,66.37
2018-11-22T22:15:05.963Z,66.27
2018-11-22T22:17:41.691Z,66.27
2018-11-22T22:20:22.292Z,66.16
2018-11-22T22:22:55.281Z,65.72
2018-11-22T22:25:30.288Z,65.72
2018-11-22T22:28:03.710Z,65.67
2018-11-22T22:30:38.301Z,65.54
2018-11-22T22:33:11.283Z,65.54
2018-11-22T22:35:46.297Z,65.48
2018-11-22T22:38:21.303Z,65.42
2018-11-22T22:40:56.287Z,65.59
2018-11-22T22:43:29.289Z,65.50
2018-11-22T22:46:04.288Z,65.48
2018-11-22T22:48:38.254Z,65.45
2018-11-22T22:51:12.930Z,65.39
2018-11-22T22:53:50.782Z,65.52
2018-11-22T22:56:25.293Z,65.58
2018-11-22T22:59:08.862Z,65.82
2018-11-22T23:01:43.588Z,66.13
2018-11-22T23:04:18.282Z,66.17
2018-11-22T23:06:50.874Z,66.11
2018-11-22T23:09:25.448Z,66.05
2018-11-22T23:12:00.288Z,65.95
2018-11-22T23:14:35.232Z,66.14
2018-11-22T23:17:09.339Z,66.21
2018-11-22T23:19:43.794Z,66.17
2018-11-22T23:22:18.769Z,66.43
2018-11-22T23:24:51.405Z,66.03
2018-11-22T23:27:26.280Z,65.98
2018-11-22T23:30:01.276Z,65.98
2018-11-22T23:32:34.287Z,65.98
2018-11-22T23:35:09.296Z,65.93
2018-11-22T23:37:42.285Z,65.87
2018-11-22T23:40:18.351Z,65.52
2018-11-22T23:42:53.442Z,65.52
2018-11-22T23:45:29.444Z,65.38
2018-11-22T23:48:04.293Z,65.06
2018-11-22T23:50:38.789Z,65.06
2018-11-22T23:53:13.587Z,64.97
2018-11-22T23:55:48.298Z,65.00
2018-11-22T23:58:20.879Z,65.00
